createdAt,value
2023-04-01T00:02:00.180Z,99617.56
2023-04-01T00:04:33.591Z,99609.84
2023-04-01T00:07:07.775Z,99605.56
2023-04-01T00:09:41.402Z,99601.29
2023-04-01T00:12:14.991Z,99599.45
2023-04-01T00:14:48.771Z,99584.42
2023-04-01T00:17:21.956Z,99579.94
2023-04-01T00:19:57.068Z,99583.80
2023-04-01T00:22:31.208Z,99584.99
2023-04-01T00:25:05.582Z,99597.41
2023-04-01T00:27:39.223Z,99588.02
2023-04-01T00:30:15.091Z,99587.22
2023-04-01T00:32:48.517Z,99577.84
2023-04-01T00:35:21.980Z,99580.69
2023-04-01T00:37:56.187Z,99574.57
2023-04-01T00:40:33.906Z,99577.60
2023-04-01T00:43:12.246Z,99570.06
2023-04-01T00:45:47.381Z,99565.16
2023-04-01T00:48:23.720Z,99560.09
2023-04-01T00:51:00.982Z,99562.73
2023-04-01T00:53:37.266Z,99550.53
2023-04-01T00:56:14.993Z,99547.27
2023-04-01T00:58:51.913Z,99551.09
2023-04-01T01:01:26.903Z,99543.17
2023-04-01T01:04:00.854Z,99544.00
2023-04-01T01:06:46.647Z,99543.79
2023-04-01T01:09:33.091Z,99545.42
2023-04-01T01:12:13.914Z,99540.14
2023-04-01T01:15:13.885Z,99540.97
2023-04-01T01:17:59.004Z,99535.69
2023-04-01T01:20:59.869Z,99528.38
2023-04-01T01:23:53.251Z,99530.64
2023-04-01T01:26:55.975Z,99531.05
2023-04-01T01:29:43.997Z,99525.59
2023-04-01T01:32:27.198Z,99525.59
2023-04-01T01:35:08.214Z,99525.38
2023-04-01T01:37:43.479Z,99514.01
2023-04-01T01:40:18.176Z,99511.98
2023-04-01T01:42:54.400Z,99500.59
2023-04-01T01:45:30.233Z,99509.97
2023-04-01T01:48:07.111Z,99511.98
2023-04-01T01:50:42.751Z,99517.89
2023-04-01T01:53:18.205Z,99519.70
2023-04-01T01:55:53.104Z,99523.98
2023-04-01T01:58:30.623Z,99523.98
2023-04-01T02:01:07.936Z,99519.31
2023-04-01T02:03:42.941Z,99517.50
2023-04-01T02:06:21.298Z,99520.77
2023-04-01T02:08:58.392Z,99511.00
2023-04-01T02:11:37.072Z,99505.53
2023-04-01T02:14:13.409Z,99504.52
2023-04-01T02:16:54.646Z,99504.70
2023-04-01T02:19:36.436Z,99507.97
2023-04-01T02:22:16.834Z,99499.02
2023-04-01T02:24:51.939Z,99491.92
2023-04-01T02:27:26.446Z,99479.52
2023-04-01T02:30:00.252Z,99469.77
2023-04-01T02:32:38.990Z,99469.16
2023-04-01T02:35:16.516Z,99467.75
2023-04-01T02:37:52.105Z,99473.22
2023-04-01T02:40:26.039Z,99481.77
2023-04-01T02:43:00.539Z,99481.97
2023-04-01T02:45:34.160Z,99477.70
2023-04-01T02:48:08.783Z,99474.83
2023-04-01T02:50:42.243Z,99469.94
2023-04-01T02:53:15.608Z,99465.66
2023-04-01T02:55:51.655Z,99463.02
2023-04-01T02:58:24.783Z,99457.12
2023-04-01T03:00:58.232Z,99452.84
2023-04-01T03:03:32.031Z,99462.41
2023-04-01T03:06:12.126Z,99465.05
2023-04-01T03:08:46.833Z,99455.27
2023-04-01T03:11:20.165Z,99455.09
2023-04-01T03:13:53.656Z,99445.54
2023-04-01T03:16:27.290Z,99439.42
2023-04-01T03:19:03.304Z,99433.34
2023-04-01T03:21:37.054Z,99434.35
2023-04-01T03:24:11.868Z,99423.96
2023-04-01T03:26:45.665Z,99421.14
2023-04-01T03:29:19.883Z,99421.14
2023-04-01T03:31:53.059Z,99423.16
2023-04-01T03:34:26.682Z,99419.69
2023-04-01T03:37:00.668Z,99427.44
2023-04-01T03:39:36.113Z,99432.91
2023-04-01T03:42:10.049Z,99435.55
2023-04-01T03:44:43.184Z,99435.55
2023-04-01T03:47:17.531Z,99424.17
2023-04-01T03:49:51.120Z,99425.80
2023-04-01T03:52:25.206Z,99420.52
2023-04-01T03:54:58.781Z,99411.98
2023-04-01T03:57:33.283Z,99401.59
2023-04-01T04:00:12.147Z,99390.22
2023-04-01T04:02:49.834Z,99388.59
2023-04-01T04:05:27.687Z,99386.97
2023-04-01T04:08:01.182Z,99385.34
2023-04-01T04:10:36.339Z,99378.60
2023-04-01T04:13:09.543Z,99380.45
2023-04-01T04:15:46.395Z,99380.45
2023-04-01T04:18:20.381Z,99375.16
2023-04-01T04:20:54.015Z,99369.88
2023-04-01T04:23:28.217Z,99367.23
2023-04-01T04:26:04.350Z,99370.89
2023-04-01T04:28:38.475Z,99370.06
2023-04-01T04:31:11.497Z,99374.55
2023-04-01T04:33:48.047Z,99385.11
2023-04-01T04:36:22.476Z,99391.02
2023-04-01T04:38:56.345Z,99392.83
2023-04-01T04:41:29.940Z,99395.06
2023-04-01T04:44:03.411Z,99404.18
2023-04-01T04:46:38.299Z,99404.39
2023-04-01T04:49:22.500Z,99401.13
2023-04-01T04:51:56.104Z,99395.64
2023-04-01T04:54:32.081Z,99393.22
2023-04-01T04:57:07.127Z,99401.58
2023-04-01T04:59:46.643Z,99399.34
2023-04-01T05:02:25.230Z,99394.28
2023-04-01T05:04:58.515Z,99386.79
2023-04-01T05:07:32.012Z,99389.66
2023-04-01T05:10:05.752Z,99398.37
2023-04-01T05:12:40.171Z,99391.06
2023-04-01T05:15:16.476Z,99387.23
2023-04-01T05:17:50.791Z,99370.97
2023-04-01T05:20:24.283Z,99379.92
2023-04-01T05:23:02.022Z,99378.50
2023-04-01T05:25:36.016Z,99372.64
2023-04-01T05:28:09.779Z,99381.80
2023-04-01T05:30:45.916Z,99383.82
2023-04-01T05:33:35.287Z,99376.31
2023-04-01T05:36:14.278Z,99365.12
2023-04-01T05:38:48.529Z,99360.45
2023-04-01T05:41:23.598Z,99362.50
2023-04-01T05:43:57.658Z,99348.88
2023-04-01T05:46:46.566Z,99352.73
2023-04-01T05:49:28.991Z,99344.41
2023-04-01T05:52:02.651Z,99348.27
2023-04-01T05:54:38.389Z,99343.38
2023-04-01T05:57:12.219Z,99342.77
2023-04-01T05:59:45.898Z,99337.08
2023-04-01T06:02:21.149Z,99324.23
2023-04-01T06:05:05.145Z,99333.39
2023-04-01T06:07:38.720Z,99332.98
2023-04-01T06:10:18.008Z,99318.54
2023-04-01T06:13:03.288Z,99317.11
2023-04-01T06:15:46.264Z,99325.25
2023-04-01T06:18:45.697Z,99318.52
2023-04-01T06:21:37.301Z,99323.20
2023-04-01T06:24:23.040Z,99323.41
2023-04-01T06:27:04.744Z,99326.23
2023-04-01T06:30:00.399Z,99331.72
2023-04-01T06:32:57.799Z,99316.83
2023-04-01T06:35:54.655Z,99314.37
2023-04-01T06:41:35.607Z,99334.14
2023-04-01T06:44:15.170Z,99335.12
2023-04-01T06:47:22.698Z,99326.98
2023-04-01T06:50:32.797Z,99327.16
2023-04-01T06:53:20.727Z,99326.09
2023-04-01T06:56:17.824Z,99328.73
2023-04-01T06:58:54.272Z,99333.19
2023-04-01T07:01:32.397Z,99332.12
2023-04-01T07:04:13.672Z,99331.69
2023-04-01T07:06:53.489Z,99325.13
2023-04-01T07:09:31.270Z,99321.42
2023-04-01T07:12:35.017Z,99319.31
2023-04-01T07:15:33.147Z,99319.88
2023-04-01T07:18:14.730Z,99324.09
2023-04-01T07:20:49.254Z,99325.09
2023-04-01T07:23:27.004Z,99326.05
2023-04-01T07:26:21.854Z,99318.66
2023-04-01T07:29:18.473Z,99329.00
2023-04-01T07:32:16.051Z,99318.91
2023-04-01T07:34:59.884Z,99314.95
2023-04-01T07:37:42.087Z,99317.13
2023-04-01T07:40:29.822Z,99311.30
2023-04-01T07:43:22.084Z,99320.83
2023-04-01T07:46:11.651Z,99316.02
2023-04-01T07:48:54.241Z,99317.59
2023-04-01T07:51:34.372Z,99315.67
2023-04-01T07:54:15.724Z,99307.03
2023-04-01T07:57:01.283Z,99313.94
2023-04-01T08:00:01.490Z,99303.66
2023-04-01T08:03:05.897Z,99298.04
2023-04-01T08:05:45.570Z,99299.25
2023-04-01T08:08:27.851Z,99303.22
2023-04-01T08:11:38.616Z,99297.80
2023-04-01T08:15:02.189Z,99293.20
2023-04-01T08:18:07.016Z,99308.84
2023-04-01T08:20:44.925Z,99297.09
2023-04-01T08:23:22.276Z,99293.39
2023-04-01T08:26:00.507Z,99289.45
2023-04-01T08:28:36.535Z,99284.50
2023-04-01T08:31:16.865Z,99287.50
2023-04-01T08:33:55.546Z,99285.80
2023-04-01T08:36:33.652Z,99281.65
2023-04-01T08:39:22.158Z,99274.01
2023-04-01T08:42:35.325Z,99276.20
2023-04-01T08:45:47.600Z,99275.41
2023-04-01T08:48:48.475Z,99263.73
2023-04-01T08:51:58.112Z,99263.27
2023-04-01T08:55:01.827Z,99265.23
2023-04-01T08:58:06.137Z,99261.32
2023-04-01T09:00:59.811Z,99277.41
2023-04-01T09:04:10.994Z,99286.55
2023-04-01T09:06:54.935Z,99291.98
2023-04-01T09:09:54.539Z,99287.25
2023-04-01T09:12:53.942Z,99286.79
2023-04-01T09:15:58.217Z,99282.63
2023-04-01T09:18:52.345Z,99278.45
2023-04-01T09:21:54.415Z,99271.63
2023-04-01T09:25:09.560Z,99279.73
2023-04-01T09:27:56.295Z,99279.02
2023-04-01T09:31:11.763Z,99291.65
2023-04-01T09:34:15.802Z,99286.66
2023-04-01T09:37:22.615Z,99286.44
2023-04-01T09:40:26.338Z,99282.02
2023-04-01T09:43:38.786Z,99275.21
2023-04-01T09:46:22.119Z,99269.67
2023-04-01T09:49:25.512Z,99266.76
2023-04-01T09:52:12.831Z,99270.00
2023-04-01T09:55:14.093Z,99265.25
2023-04-01T09:58:27.824Z,99269.06
2023-04-01T10:01:39.162Z,99273.92
2023-04-01T10:08:08.225Z,99276.69
2023-04-01T10:11:17.661Z,99273.55
2023-04-01T10:14:25.053Z,99269.48
2023-04-01T10:17:26.713Z,99276.63
2023-04-01T10:20:39.217Z,99263.50
2023-04-01T10:23:43.136Z,99250.62
2023-04-01T10:26:42.123Z,99240.94
2023-04-01T10:30:04.885Z,99236.83
2023-04-01T10:33:16.818Z,99232.23
2023-04-01T10:36:09.369Z,99229.17
2023-04-01T10:39:10.005Z,99225.23
2023-04-01T10:42:16.413Z,99225.05
2023-04-01T10:46:09.154Z,99215.59
2023-04-01T10:49:22.604Z,99201.95
2023-04-01T10:52:36.754Z,99205.30
2023-04-01T10:55:57.252Z,99213.45
2023-04-01T10:59:23.027Z,99205.65
2023-04-01T11:02:45.451Z,99205.29
2023-04-01T11:06:17.385Z,99191.80
2023-04-01T11:09:25.461Z,99189.25
2023-04-01T11:12:28.697Z,99178.13
2023-04-01T11:15:35.154Z,99180.85
2023-04-01T11:18:54.334Z,99169.43
2023-04-01T11:21:51.905Z,99172.16
2023-04-01T11:24:48.020Z,99180.22
2023-04-01T11:27:55.814Z,99177.05
2023-04-01T11:30:36.753Z,99173.61
2023-04-01T11:33:20.542Z,99164.80
2023-04-01T11:36:09.125Z,99160.80
2023-04-01T11:39:10.831Z,99150.92
2023-04-01T11:42:12.093Z,99150.42
2023-04-01T11:45:16.400Z,99132.81
2023-04-01T11:48:17.237Z,99117.33
2023-04-01T11:51:17.672Z,99122.41
2023-04-01T11:54:02.542Z,99114.38
2023-04-01T11:56:55.211Z,99112.02
2023-04-01T11:59:59.690Z,99106.67
2023-04-01T12:02:45.521Z,99106.67
2023-04-01T12:05:46.243Z,99120.33
2023-04-01T12:08:34.368Z,99124.10
2023-04-01T12:11:19.031Z,99118.52
2023-04-01T12:14:02.661Z,99120.95
2023-04-01T12:16:52.322Z,99131.41
2023-04-01T12:19:35.254Z,99132.20
2023-04-01T12:22:23.959Z,99135.73
2023-04-01T12:25:07.669Z,99131.73
2023-04-01T12:27:52.823Z,99138.69
2023-04-01T12:30:49.831Z,99140.81
2023-04-01T12:33:52.359Z,99147.77
2023-04-01T12:36:31.047Z,99139.75
2023-04-01T12:39:21.498Z,99145.09
2023-04-01T12:42:02.396Z,99137.34
2023-04-01T12:44:52.412Z,99133.61
2023-04-01T12:47:51.646Z,99128.50
2023-04-01T12:50:52.870Z,99133.02
2023-04-01T12:53:45.302Z,99131.64
2023-04-01T12:56:28.932Z,99122.25
2023-04-01T12:59:21.973Z,99124.56
2023-04-01T13:02:15.000Z,99119.73
2023-04-01T13:05:27.617Z,99111.94
2023-04-01T13:08:21.436Z,99108.95
2023-04-01T13:11:09.617Z,99114.56
2023-04-01T13:14:31.489Z,99117.47
2023-04-01T13:17:15.964Z,99126.87
2023-04-01T13:20:04.337Z,99124.75
2023-04-01T13:22:54.500Z,99132.26
2023-04-01T13:25:39.153Z,99131.20
2023-04-01T13:28:18.818Z,99123.97
2023-04-01T13:31:02.595Z,99132.55
2023-04-01T13:33:43.529Z,99125.08
2023-04-01T13:36:29.347Z,99131.75
2023-04-01T13:39:22.345Z,99135.48
2023-04-01T13:42:26.131Z,99129.31
2023-04-01T13:45:07.938Z,99125.85
2023-04-01T13:48:29.060Z,99122.36
2023-04-01T13:51:30.300Z,99120.50
2023-04-01T13:54:49.311Z,99123.69
2023-04-01T13:57:56.160Z,99130.33
2023-04-01T14:00:41.853Z,99131.39
2023-04-01T14:03:33.003Z,99120.70
2023-04-01T14:06:28.755Z,99130.28
2023-04-01T14:09:20.172Z,99130.55
2023-04-01T14:12:05.449Z,99123.03
2023-04-01T14:14:56.828Z,99126.22
2023-04-01T14:17:50.573Z,99133.92
2023-04-01T14:20:33.160Z,99120.50
2023-04-01T14:23:27.448Z,99117.28
2023-04-01T14:26:14.790Z,99122.89
2023-04-01T14:28:55.953Z,99114.31
2023-04-01T14:31:50.884Z,99101.20
2023-04-01T14:34:40.807Z,99102.25
2023-04-01T14:37:25.904Z,99096.35
2023-04-01T14:40:35.141Z,99099.02
2023-04-01T14:43:31.258Z,99109.16
2023-04-01T14:46:27.397Z,99106.75
2023-04-01T14:49:06.484Z,99087.50
2023-04-01T14:51:41.744Z,99081.59
2023-04-01T14:54:24.154Z,99092.79
2023-04-01T14:57:12.714Z,99097.58
2023-04-01T14:59:51.311Z,99099.13
2023-04-01T15:02:48.446Z,99102.04
2023-04-01T15:05:34.401Z,99101.75
2023-04-01T15:08:15.969Z,99095.03
2023-04-01T15:11:01.724Z,99098.75
2023-04-01T15:13:56.631Z,99092.86
2023-04-01T15:16:42.508Z,99097.64
2023-04-01T15:19:27.590Z,99100.81
2023-04-01T15:22:32.338Z,99094.13
2023-04-01T15:25:36.859Z,99094.63
2023-04-01T15:28:21.900Z,99092.69
2023-04-01T15:31:04.147Z,99086.23
2023-04-01T15:33:42.912Z,99089.39
2023-04-01T15:36:28.105Z,99082.94
2023-04-01T15:39:13.504Z,99073.58
2023-04-01T15:42:10.936Z,99073.81
2023-04-01T15:44:58.028Z,99072.20
2023-04-01T15:47:38.909Z,99062.58
2023-04-01T15:50:54.286Z,99061.23
2023-04-01T15:53:52.544Z,99056.95
2023-04-01T15:56:42.790Z,99055.56
2023-04-01T15:59:31.520Z,99052.11
2023-04-01T16:02:16.793Z,99053.16
2023-04-01T16:05:01.145Z,99052.80
2023-04-01T16:07:50.614Z,99043.19
2023-04-01T16:10:37.935Z,99045.06
2023-04-01T16:13:28.944Z,99043.68
2023-04-01T16:16:10.349Z,99038.05
2023-04-01T16:19:02.360Z,99025.44
2023-04-01T16:21:47.629Z,99030.22
2023-04-01T16:24:33.727Z,99023.50
2023-04-01T16:27:13.057Z,99023.20
2023-04-01T16:29:51.645Z,99015.69
2023-04-01T16:32:36.865Z,99019.64
2023-04-01T16:35:28.289Z,99012.40
2023-04-01T16:38:10.464Z,99014.73
2023-04-01T16:40:49.796Z,99013.62
2023-04-01T16:43:31.386Z,99010.66
2023-04-01T16:46:36.777Z,99013.81
2023-04-01T16:49:28.403Z,99012.69
2023-04-01T16:52:16.918Z,99016.91
2023-04-01T16:54:58.107Z,99031.77
2023-04-01T16:57:37.799Z,99026.37
2023-04-01T17:00:26.403Z,99023.37
2023-04-01T17:03:18.521Z,99033.73
2023-04-01T17:06:05.522Z,99041.66
2023-04-01T17:09:03.655Z,99050.13
2023-04-01T17:11:45.495Z,99067.89
2023-04-01T17:14:27.908Z,99061.69
2023-04-01T17:17:31.313Z,99063.22
2023-04-01T17:20:34.037Z,99062.31
2023-04-01T17:23:15.020Z,99058.28
2023-04-01T17:26:10.975Z,99061.66
2023-04-01T17:28:53.084Z,99061.91
2023-04-01T17:31:47.327Z,99065.63
2023-04-01T17:34:50.141Z,99062.40
2023-04-01T17:37:39.717Z,99063.45
2023-04-01T17:40:24.118Z,99070.87
2023-04-01T17:43:07.162Z,99071.92
2023-04-01T17:45:49.796Z,99073.19
2023-04-01T17:48:35.884Z,99078.77
2023-04-01T17:51:27.530Z,99076.33
2023-04-01T17:54:13.816Z,99070.69
2023-04-01T17:57:04.293Z,99077.06
2023-04-01T17:59:41.726Z,99085.53
2023-04-01T18:02:29.359Z,99098.59
2023-04-01T18:05:29.757Z,99106.27
2023-04-01T18:08:20.130Z,99101.42
2023-04-01T18:11:15.968Z,99107.22
2023-04-01T18:14:17.211Z,99103.73
2023-04-01T18:17:17.024Z,99115.44
2023-04-01T18:20:04.554Z,99112.17
2023-04-01T18:22:45.704Z,99116.92
2023-04-01T18:25:25.699Z,99108.36
2023-04-01T18:28:09.519Z,99102.47
2023-04-01T18:30:45.348Z,99108.27
2023-04-01T18:33:28.281Z,99098.66
2023-04-01T18:36:12.236Z,99108.52
2023-04-01T18:38:52.995Z,99108.99
2023-04-01T18:41:34.555Z,99101.48
2023-04-01T18:44:29.491Z,99100.66
2023-04-01T18:47:18.442Z,99100.34
2023-04-01T18:50:02.078Z,99101.60
2023-04-01T18:52:39.705Z,99111.45
2023-04-01T18:55:39.253Z,99102.89
2023-04-01T18:58:23.852Z,99100.45
2023-04-01T19:01:08.246Z,99109.73
2023-04-01T19:03:50.916Z,99110.20
2023-04-01T19:06:34.329Z,99110.67
2023-04-01T19:09:26.642Z,99112.77
2023-04-01T19:12:29.065Z,99118.30
2023-04-01T19:15:23.211Z,99119.34
2023-04-01T19:18:09.067Z,99131.28
2023-04-01T19:20:47.214Z,99138.69
2023-04-01T19:23:50.415Z,99138.91
2023-04-01T19:26:30.768Z,99138.58
2023-04-01T19:29:16.059Z,99139.63
2023-04-01T19:32:00.900Z,99140.67
2023-04-01T19:34:49.459Z,99145.63
2023-04-01T19:37:35.119Z,99147.50
2023-04-01T19:40:35.810Z,99146.67
2023-04-01T19:43:16.760Z,99143.44
2023-04-01T19:45:57.337Z,99144.72
2023-04-01T19:48:47.082Z,99145.52
2023-04-01T19:56:43.795Z,99148.06
2023-04-01T19:59:25.447Z,99151.77
2023-04-01T20:02:06.644Z,99153.85
2023-04-01T20:04:47.137Z,99167.39
2023-04-01T20:07:26.527Z,99162.30
2023-04-01T20:10:08.075Z,99165.20
2023-04-01T20:12:51.333Z,99170.52
2023-04-01T20:15:36.502Z,99169.94
2023-04-01T20:18:17.064Z,99159.30
2023-04-01T20:21:01.954Z,99165.66
2023-04-01T20:23:53.218Z,99156.06
2023-04-01T20:26:32.724Z,99155.23
2023-04-01T20:29:37.765Z,99156.52
2023-04-01T20:32:21.970Z,99149.01
2023-04-01T20:35:17.653Z,99154.33
2023-04-01T20:37:57.427Z,99153.50
2023-04-01T20:40:41.682Z,99146.56
2023-04-01T20:43:43.955Z,99142.29
2023-04-01T20:46:25.354Z,99140.67
2023-04-01T20:49:33.521Z,99139.87
2023-04-01T20:52:25.182Z,99145.19
2023-04-01T20:55:33.219Z,99142.75
2023-04-01T20:58:23.976Z,99146.45
2023-04-01T21:01:10.948Z,99142.17
2023-04-01T21:03:51.703Z,99149.35
2023-04-01T21:07:09.100Z,99144.25
2023-04-01T21:09:54.760Z,99153.05
2023-04-01T21:12:40.452Z,99153.05
2023-04-01T21:15:30.223Z,99153.05
2023-04-01T21:18:26.975Z,99152.23
2023-04-01T21:21:17.986Z,99148.98
2023-04-01T21:24:04.645Z,99146.58
2023-04-01T21:26:49.662Z,99141.01
2023-04-01T21:29:54.032Z,99139.39
2023-04-01T21:32:48.157Z,99145.75
2023-04-01T21:35:37.845Z,99140.09
2023-04-01T21:38:35.899Z,99139.52
2023-04-01T21:41:24.036Z,99142.39
2023-04-01T21:44:26.716Z,99147.95
2023-04-01T21:47:42.731Z,99142.63
2023-04-01T21:50:38.223Z,99135.13
2023-04-01T21:53:51.556Z,99135.33
2023-04-01T21:57:01.005Z,99137.66
2023-04-01T22:00:17.639Z,99140.07
2023-04-01T22:03:42.424Z,99135.00
2023-04-01T22:06:31.563Z,99133.38
2023-04-01T22:09:21.140Z,99136.25
2023-04-01T22:12:04.161Z,99130.14
2023-04-01T22:14:45.130Z,99125.62
2023-04-01T22:17:28.584Z,99131.97
2023-04-01T22:20:12.840Z,99122.16
2023-04-01T22:23:02.813Z,99121.34
2023-04-01T22:25:44.738Z,99126.66
2023-04-01T22:28:24.577Z,99115.23
2023-04-01T22:31:02.226Z,99105.86
2023-04-01T22:33:43.202Z,99113.83
2023-04-01T22:36:24.818Z,99116.48
2023-04-01T22:39:12.930Z,99114.66
2023-04-01T22:42:00.247Z,99125.50
2023-04-01T22:44:47.682Z,99122.05
2023-04-01T22:47:28.851Z,99114.28
2023-04-01T22:50:08.283Z,99114.28
2023-04-01T22:52:45.373Z,99117.98
2023-04-01T22:55:24.926Z,99115.56
2023-04-01T22:58:02.169Z,99124.58
2023-04-01T23:00:38.905Z,99117.64
2023-04-01T23:03:17.791Z,99123.17
2023-04-01T23:05:54.643Z,99118.89
2023-04-01T23:08:49.567Z,99123.41
2023-04-01T23:11:28.658Z,99121.80
2023-04-01T23:14:19.906Z,99133.22
2023-04-01T23:16:57.247Z,99129.77
2023-04-01T23:19:37.349Z,99132.64
2023-04-01T23:22:21.190Z,99128.61
2023-04-01T23:25:02.379Z,99123.29
2023-04-01T23:27:41.513Z,99120.02
2023-04-01T23:30:53.956Z,99122.67
2023-04-01T23:33:31.983Z,99118.64
2023-04-01T23:36:15.221Z,99119.89
2023-04-01T23:38:52.339Z,99131.10
2023-04-01T23:41:28.399Z,99123.59
2023-04-01T23:44:06.785Z,99121.97
2023-04-01T23:46:42.216Z,99128.31
2023-04-01T23:49:20.738Z,99131.22
2023-04-01T23:51:58.964Z,99129.02
2023-04-01T23:54:41.659Z,99129.47
2023-04-01T23:57:18.717Z,99130.92
